Time;durP1;ratioP1;P1;durP2;ratioP2;P2;SDS_P1;SDS_P2;PMS_P1;PMS_P2;Temp;Humidity;BMP_temperature;BMP_pressure;BME280_temperature;BME280_humidity;BME280_pressure;Samples;Min_cycle;Max_cycle;Signal;HPM_P1;HPM_P2
2023/10/11 00:00:34;;;;;;;8.40;6.17;;;;;;;16.45;58.27;99105.78;7059007;28;20256;-84
2023/10/11 00:03:58;;;;;;;10.57;6.07;;;;;;;16.29;58.40;99095.53;7052286;28;20277;-85
2023/10/11 00:07:20;;;;;;;10.53;6.70;;;;;;;16.41;58.14;99099.16;7062078;28;20233;-84
2023/10/11 00:10:47;;;;;;;11.43;7.33;;;;;;;16.35;57.95;99102.75;7048680;28;20829;-84
2023/10/11 00:14:10;;;;;;;10.80;6.40;;;;;;;16.36;57.95;99103.59;7048718;28;20617;-84
2023/10/11 00:17:32;;;;;;;11.43;6.47;;;;;;;16.17;57.35;99069.41;7047558;28;20333;-84
2023/10/11 00:20:57;;;;;;;16.43;7.03;;;;;;;16.28;57.88;99109.41;7062394;27;20225;-84
2023/10/11 00:24:23;;;;;;;10.63;6.37;;;;;;;16.30;57.33;99107.25;7048739;28;20231;-84
2023/10/11 00:27:44;;;;;;;19.13;7.50;;;;;;;16.28;57.62;99096.59;7055543;28;20202;-84
2023/10/11 00:31:16;;;;;;;12.57;5.73;;;;;;;16.00;58.38;99073.84;7055541;28;20233;-84
2023/10/11 00:34:38;;;;;;;12.70;5.97;;;;;;;16.40;57.60;99102.13;7059597;28;20270;-83
2023/10/11 00:38:00;;;;;;;9.47;6.43;;;;;;;16.29;57.92;99100.16;7054553;28;20266;-83
2023/10/11 00:41:25;;;;;;;16.93;7.23;;;;;;;16.55;57.94;99094.31;7057310;28;20227;-84
2023/10/11 00:44:47;;;;;;;10.87;6.70;;;;;;;16.42;57.81;99087.22;7051377;28;20225;-84
2023/10/11 00:48:13;;;;;;;12.20;7.20;;;;;;;16.09;59.38;99078.72;7052488;28;20214;-84
2023/10/11 00:51:36;;;;;;;8.97;6.50;;;;;;;16.59;57.85;99074.56;7061454;28;20204;-84
2023/10/11 00:54:58;;;;;;;12.67;6.77;;;;;;;16.16;58.49;99051.41;7060700;28;20232;-84
2023/10/11 00:58:20;;;;;;;10.23;6.47;;;;;;;16.61;57.48;99075.13;7063272;28;20641;-84
2023/10/11 01:01:43;;;;;;;14.17;6.43;;;;;;;16.68;56.89;99043.16;7064543;28;20704;-84
2023/10/11 01:05:06;;;;;;;9.47;6.03;;;;;;;16.66;56.70;99047.19;7059790;28;20229;-84
2023/10/11 01:08:31;;;;;;;11.93;6.80;;;;;;;16.56;56.62;99028.72;7060389;28;20197;-83
2023/10/11 01:11:52;;;;;;;12.03;6.53;;;;;;;16.73;56.58;99072.41;7067770;28;20203;-84
2023/10/11 01:15:15;;;;;;;9.27;6.17;;;;;;;16.95;56.67;99062.56;7059509;28;20225;-84
2023/10/11 01:18:36;;;;;;;14.33;7.30;;;;;;;16.87;56.46;99049.31;7054623;28;20209;-84
2023/10/11 01:21:59;;;;;;;12.20;6.50;;;;;;;16.69;57.08;99049.44;7057428;28;20226;-85
2023/10/11 01:25:21;;;;;;;11.87;6.50;;;;;;;16.67;57.33;99060.56;7052216;28;20309;-84
2023/10/11 01:28:45;;;;;;;9.87;6.40;;;;;;;16.65;57.35;99068.16;7048490;28;20213;-84
2023/10/11 01:32:07;;;;;;;14.17;6.60;;;;;;;16.62;57.25;99057.72;7046438;28;20199;-84
2023/10/11 01:35:36;;;;;;;11.87;6.07;;;;;;;16.58;57.57;99059.25;7050767;28;20309;-84
2023/10/11 01:39:02;;;;;;;9.13;6.23;;;;;;;16.60;57.02;99056.31;7061602;28;20225;-84
2023/10/11 01:42:24;;;;;;;10.20;6.77;;;;;;;16.86;56.52;99066.72;7048784;28;20789;-83
2023/10/11 01:45:45;;;;;;;8.97;6.33;;;;;;;16.91;56.47;99043.13;7063157;28;20253;-83
2023/10/11 01:49:07;;;;;;;9.70;5.93;;;;;;;16.86;56.65;99048.47;7063709;28;20727;-83
2023/10/11 01:52:34;;;;;;;11.23;6.87;;;;;;;16.72;56.85;99051.69;7047573;28;20707;-84
2023/10/11 01:55:57;;;;;;;14.10;6.77;;;;;;;16.80;56.47;99037.72;7041406;28;20234;-84
2023/10/11 01:59:18;;;;;;;13.40;6.70;;;;;;;16.76;56.78;99048.25;7048565;28;20290;-84
2023/10/11 02:02:44;;;;;;;10.10;6.13;;;;;;;16.71;56.94;99060.91;7037935;28;20289;-84
2023/10/11 02:06:07;;;;;;;11.17;6.23;;;;;;;16.79;56.51;99036.88;7049199;28;20246;-84
2023/10/11 02:09:29;;;;;;;11.43;6.83;;;;;;;16.73;56.37;99045.16;7043551;28;20208;-84
2023/10/11 02:12:55;;;;;;;12.73;7.43;;;;;;;16.49;57.36;99048.97;7042193;28;20324;-84
2023/10/11 02:16:17;;;;;;;12.77;7.37;;;;;;;16.67;56.66;99043.41;7040497;28;20230;-83
2023/10/11 02:19:38;;;;;;;12.63;6.73;;;;;;;16.44;57.43;99046.97;7034136;28;20258;-84
2023/10/11 02:23:00;;;;;;;10.47;6.47;;;;;;;16.53;56.96;99044.72;7046668;28;20721;-84
2023/10/11 02:26:28;;;;;;;13.53;6.83;;;;;;;16.24;56.47;98928.63;7039088;28;20223;-84
2023/10/11 02:29:51;;;;;;;13.30;6.73;;;;;;;16.56;56.65;99038.78;7045837;28;20216;-84
2023/10/11 02:33:13;;;;;;;11.33;6.73;;;;;;;16.43;56.95;99041.75;7032885;28;20198;-84
2023/10/11 02:36:35;;;;;;;9.27;6.30;;;;;;;16.24;57.87;99041.03;7044982;28;20269;-84
2023/10/11 02:39:59;;;;;;;10.17;6.10;;;;;;;16.37;57.63;99029.91;7047424;28;20684;-84
2023/10/11 02:43:20;;;;;;;10.10;6.83;;;;;;;16.62;57.24;99044.13;7039935;28;20221;-84
2023/10/11 02:46:44;;;;;;;11.13;6.53;;;;;;;16.55;57.28;99031.69;7034722;28;20361;-84
2023/10/11 02:50:08;;;;;;;11.97;6.53;;;;;;;16.38;57.61;99038.88;7046361;28;20218;-84
2023/10/11 02:53:36;;;;;;;13.40;6.33;;;;;;;16.47;57.45;99032.91;7041761;28;20265;-84
2023/10/11 02:56:57;;;;;;;10.80;7.03;;;;;;;16.56;56.88;99036.06;7048533;28;20312;-85
2023/10/11 03:00:28;;;;;;;10.43;6.40;;;;;;;16.60;57.02;99039.97;7033689;28;20225;-84
2023/10/11 03:03:52;;;;;;;13.10;5.90;;;;;;;16.40;57.19;99040.34;7048380;28;20733;-84
2023/10/11 03:07:20;;;;;;;11.57;6.50;;;;;;;16.45;57.17;99037.72;7048683;28;20225;-84
2023/10/11 03:10:53;;;;;;;10.07;6.60;;;;;;;16.54;57.54;99033.59;7045820;28;20648;-85
2023/10/11 03:14:14;;;;;;;10.10;6.70;;;;;;;16.41;57.65;99025.69;7048480;28;20203;-85
2023/10/11 03:17:40;;;;;;;11.10;6.57;;;;;;;16.36;57.52;99016.53;7053254;28;20239;-83
2023/10/11 03:21:16;;;;;;;10.60;7.47;;;;;;;15.67;59.24;99009.09;7054310;28;20230;-84
2023/10/11 03:24:40;;;;;;;10.70;5.93;;;;;;;16.23;58.28;99031.19;7034002;28;20229;-83
2023/10/11 03:28:02;;;;;;;9.13;6.00;;;;;;;16.32;57.63;99023.50;7046515;28;20206;-84
2023/10/11 03:31:24;;;;;;;9.57;6.27;;;;;;;16.31;57.33;99003.63;7047251;28;20197;-84
2023/10/11 03:34:46;;;;;;;11.43;6.40;;;;;;;16.84;55.89;99023.38;7047706;28;20714;-84
2023/10/11 03:38:17;;;;;;;12.50;6.13;;;;;;;16.73;56.10;99016.06;7048141;28;20803;-84
2023/10/11 03:41:44;;;;;;;9.07;5.73;;;;;;;16.62;56.38;99016.06;7043236;28;20596;-84
2023/10/11 03:45:08;;;;;;;10.73;7.13;;;;;;;16.35;57.16;99015.69;7049893;28;20221;-84
2023/10/11 03:48:34;;;;;;;15.83;7.47;;;;;;;16.26;57.05;99019.00;7042316;28;20206;-83
2023/10/11 03:51:55;;;;;;;11.13;6.50;;;;;;;16.20;57.52;99012.63;7046543;28;20193;-84
2023/10/11 03:55:18;;;;;;;11.43;5.83;;;;;;;15.32;57.83;98895.91;7049689;28;20345;-84
2023/10/11 03:58:40;;;;;;;9.83;6.00;;;;;;;16.07;57.67;99007.41;7041681;28;20293;-83
2023/10/11 04:02:01;;;;;;;16.03;7.00;;;;;;;16.19;57.76;99010.13;7039544;28;20312;-84
2023/10/11 04:05:23;;;;;;;10.20;6.20;;;;;;;16.31;57.65;99005.50;7044754;28;20250;-84
2023/10/11 04:08:49;;;;;;;10.53;6.47;;;;;;;16.01;56.77;98974.88;7043474;28;20370;-84
2023/10/11 04:12:12;;;;;;;12.97;7.07;;;;;;;16.16;57.58;98997.81;7048942;28;20194;-84
2023/10/11 04:15:34;;;;;;;10.70;6.63;;;;;;;16.13;57.43;99008.34;7042879;28;20310;-83
2023/10/11 04:19:01;;;;;;;10.97;7.27;;;;;;;16.11;56.85;98991.44;7048590;28;20230;-84
2023/10/11 04:22:31;;;;;;;14.10;6.73;;;;;;;16.10;57.50;99009.66;7050633;28;20213;-84
2023/10/11 04:25:55;;;;;;;11.03;6.33;;;;;;;16.22;57.30;99007.75;7050826;28;20232;-85
2023/10/11 04:29:18;;;;;;;10.90;6.13;;;;;;;16.31;56.67;99005.50;7044306;28;20339;-85
2023/10/11 04:32:41;;;;;;;9.53;5.60;;;;;;;16.16;57.56;99010.63;7046209;28;20297;-85
2023/10/11 04:36:02;;;;;;;12.10;6.47;;;;;;;16.43;57.15;99014.53;7048539;28;20593;-85
2023/10/11 04:39:33;;;;;;;10.33;5.53;;;;;;;16.63;56.23;99004.13;7047725;28;20202;-85
2023/10/11 04:43:05;;;;;;;17.50;6.90;;;;;;;16.63;55.95;99013.09;7044137;28;20714;-83
2023/10/11 04:46:30;;;;;;;12.77;6.50;;;;;;;16.33;56.41;98976.19;7045494;28;20270;-83
2023/10/11 04:49:53;;;;;;;15.07;6.63;;;;;;;16.71;56.15;99011.91;7055694;28;20201;-84
2023/10/11 04:53:19;;;;;;;13.40;6.33;;;;;;;16.41;56.96;99019.41;7039142;28;20203;-83
2023/10/11 04:56:59;;;;;;;11.87;6.27;;;;;;;16.87;55.91;99016.63;7040124;28;20231;-84
2023/10/11 05:00:20;;;;;;;10.37;6.27;;;;;;;16.92;55.55;99003.13;7042322;28;20222;-83
2023/10/11 05:03:42;;;;;;;11.87;6.73;;;;;;;16.86;55.66;99017.72;7046647;28;20202;-83
2023/10/11 05:07:07;;;;;;;11.17;6.93;;;;;;;16.73;55.87;99016.06;7041509;28;20336;-83
2023/10/11 05:10:42;;;;;;;15.20;7.03;;;;;;;16.80;55.85;99019.47;7041018;28;20691;-84
2023/10/11 05:14:28;;;;;;;13.70;7.30;;;;;;;16.51;56.27;99025.91;7039483;28;20202;-85
2023/10/11 05:17:59;;;;;;;11.27;6.40;;;;;;;16.93;55.77;99021.94;7040254;28;20584;-83
2023/10/11 05:21:26;;;;;;;10.10;6.50;;;;;;;16.72;55.91;99008.13;7038783;28;20232;-84
2023/10/11 05:25:12;;;;;;;14.60;6.70;;;;;;;16.67;56.39;99019.72;7044373;28;20693;-84
2023/10/11 05:28:45;;;;;;;10.00;6.10;;;;;;;16.31;56.67;98992.75;7051751;28;20209;-84
2023/10/11 05:32:23;;;;;;;11.37;7.40;;;;;;;16.58;56.27;99006.72;7058734;28;20205;-83
2023/10/11 05:36:09;;;;;;;17.17;6.90;;;;;;;16.57;56.73;99024.13;7054511;28;20232;-83
2023/10/11 05:54:04;;;;;;;10.00;6.60;;;;;;;16.52;56.61;99019.38;7045934;28;20199;-85
2023/10/11 05:57:28;;;;;;;12.70;7.07;;;;;;;16.32;56.85;99021.63;7040294;28;20218;-86
2023/10/11 06:00:53;;;;;;;12.63;7.80;;;;;;;16.16;57.07;99043.25;7040119;28;20219;-85
2023/10/11 06:04:14;;;;;;;17.10;7.80;;;;;;;16.32;56.32;99026.22;7049079;28;20198;-86
2023/10/11 06:07:37;;;;;;;17.77;7.83;;;;;;;16.08;57.65;99044.41;7035994;28;20204;-85
2023/10/11 06:10:59;;;;;;;11.23;6.67;;;;;;;16.11;58.00;99045.84;7037299;28;20205;-87
2023/10/11 06:14:23;;;;;;;11.07;6.63;;;;;;;16.20;57.14;99037.09;7045451;28;20230;-86
2023/10/11 06:17:48;;;;;;;12.80;7.90;;;;;;;16.13;57.20;99041.84;7035061;28;20206;-85
2023/10/11 06:21:24;;;;;;;12.40;6.97;;;;;;;16.53;57.00;99042.00;7028242;28;20237;-85
2023/10/11 06:24:46;;;;;;;11.70;7.50;;;;;;;16.72;56.12;99046.25;7048164;28;20233;-82
2023/10/11 06:28:13;;;;;;;12.53;6.80;;;;;;;16.50;55.22;98988.03;7046478;28;20208;-83
2023/10/11 06:31:40;;;;;;;12.33;6.53;;;;;;;16.49;56.28;99010.88;7040100;28;20210;-85
2023/10/11 06:35:04;;;;;;;9.10;6.00;;;;;;;17.03;54.85;99018.59;7033944;28;20706;-84
2023/10/11 06:38:29;;;;;;;10.77;6.13;;;;;;;16.89;55.97;99019.94;7043398;28;20200;-85
2023/10/11 06:41:50;;;;;;;11.20;5.77;;;;;;;17.52;54.05;99007.06;7044784;28;20593;-85
2023/10/11 06:45:17;;;;;;;13.27;5.90;;;;;;;18.26;53.32;99020.34;7036247;28;20684;-84
2023/10/11 06:48:40;;;;;;;8.90;5.50;;;;;;;18.70;51.22;99013.97;7032069;28;20201;-87
2023/10/11 06:52:05;;;;;;;10.00;6.30;;;;;;;18.54;50.79;98928.28;7043721;28;20341;-87
2023/10/11 06:55:26;;;;;;;7.80;6.03;;;;;;;19.31;50.79;99035.56;7041899;28;20598;-87
2023/10/11 06:58:48;;;;;;;10.70;5.90;;;;;;;19.49;50.74;99029.75;7039144;28;20201;-86
2023/10/11 07:02:17;;;;;;;13.47;5.97;;;;;;;20.15;50.04;99034.81;7046773;28;20224;-87
2023/10/11 07:05:46;;;;;;;12.30;7.07;;;;;;;20.16;49.20;99039.25;7025629;28;20277;-88
2023/10/11 07:09:19;;;;;;;11.57;6.13;;;;;;;20.07;48.93;98967.72;7048963;28;20684;-87
2023/10/11 07:12:41;;;;;;;13.07;7.60;;;;;;;21.07;46.99;99027.81;7046198;28;20283;-86
2023/10/11 07:16:08;;;;;;;13.90;6.40;;;;;;;20.90;46.83;99028.03;7040481;28;20220;-84
2023/10/11 07:19:35;;;;;;;12.97;6.60;;;;;;;21.72;45.68;99032.47;7029031;28;20201;-85
2023/10/11 07:22:58;;;;;;;12.17;6.40;;;;;;;21.90;45.77;99028.41;7029921;28;20212;-86
2023/10/11 07:26:48;;;;;;;11.17;5.83;;;;;;;22.33;44.30;99030.63;7039902;28;20220;-88
2023/10/11 07:30:16;;;;;;;11.20;5.93;;;;;;;21.89;43.74;98969.91;7046684;28;20627;-88
2023/10/11 07:37:03;;;;;;;11.67;5.90;;;;;;;23.00;44.73;99033.84;6932145;28;20223;-89
2023/10/11 07:40:34;;;;;;;11.27;6.00;;;;;;;23.36;43.41;99044.47;6937853;28;20270;-85
2023/10/11 07:43:56;;;;;;;14.53;6.60;;;;;;;23.23;41.38;98924.03;6930038;28;20197;-84
2023/10/11 07:47:18;;;;;;;10.90;5.67;;;;;;;22.71;42.68;98964.09;6931323;28;20250;-86
2023/10/11 07:50:42;;;;;;;11.00;5.87;;;;;;;23.73;41.26;99044.03;6931939;28;20302;-86
2023/10/11 07:54:06;;;;;;;13.60;5.33;;;;;;;24.06;40.30;99046.06;6934377;28;20222;-88
2023/10/11 07:57:29;;;;;;;8.57;5.20;;;;;;;24.63;39.33;99041.47;6930925;28;20242;-87
2023/10/11 08:00:51;;;;;;;11.27;6.37;;;;;;;24.87;39.71;99034.06;6947684;28;20310;-88
2023/10/11 08:04:17;;;;;;;12.57;6.17;;;;;;;25.14;39.30;99047.28;6945788;28;20808;-89
2023/10/11 08:07:40;;;;;;;11.80;6.00;;;;;;;25.29;38.82;99022.28;6946387;28;20683;-87
2023/10/11 08:11:06;;;;;;;14.47;6.47;;;;;;;25.28;38.02;98970.97;6946190;28;20562;-87
2023/10/11 08:14:29;;;;;;;8.67;5.87;;;;;;;25.58;36.29;99026.59;6945383;28;20688;-84
2023/10/11 08:17:50;;;;;;;12.50;5.40;;;;;;;25.81;36.56;99016.63;6942559;28;20198;-82
2023/10/11 08:21:12;;;;;;;7.73;4.90;;;;;;;25.94;35.58;99033.31;6943043;28;20359;-82
2023/10/11 08:24:45;;;;;;;11.43;5.77;;;;;;;26.83;34.58;99034.91;6941897;28;20287;-86
2023/10/11 08:28:12;;;;;;;9.67;5.17;;;;;;;25.93;34.54;98928.59;6943037;28;20195;-86
2023/10/11 08:31:37;;;;;;;8.70;4.93;;;;;;;26.65;35.32;98967.44;6940971;28;20199;-87
2023/10/11 08:34:59;;;;;;;11.20;6.00;;;;;;;26.93;35.23;99001.50;6939243;28;20238;-86
2023/10/11 08:38:24;;;;;;;10.07;5.47;;;;;;;27.95;33.93;99031.22;6937279;28;20304;-86
2023/10/11 08:41:46;;;;;;;9.57;4.43;;;;;;;28.00;32.05;99021.94;6932794;28;20218;-85
2023/10/11 08:45:14;;;;;;;12.70;5.00;;;;;;;28.32;31.14;99014.22;6944014;28;20229;-86
2023/10/11 08:48:39;;;;;;;9.70;4.63;;;;;;;28.14;31.63;98950.66;6941887;28;20210;-87
2023/10/11 08:52:01;;;;;;;6.73;4.77;;;;;;;29.44;28.62;99019.28;6943492;28;20204;-85
2023/10/11 08:55:24;;;;;;;12.83;6.23;;;;;;;29.23;28.67;98977.41;6926532;28;20704;-88
2023/10/11 08:58:51;;;;;;;10.20;4.63;;;;;;;30.40;27.10;99015.19;6940759;28;20312;-84
2023/10/11 09:02:12;;;;;;;11.97;4.57;;;;;;;29.94;28.23;98956.59;6944294;28;20213;-90
2023/10/11 09:05:43;;;;;;;12.47;5.10;;;;;;;29.47;27.74;98901.94;6946195;28;20232;-90
2023/10/11 09:09:05;;;;;;;9.90;5.87;;;;;;;30.01;28.16;99013.38;6944928;28;20665;-84
2023/10/11 09:12:27;;;;;;;16.57;5.30;;;;;;;30.33;27.55;99012.09;6945058;28;20213;-86
2023/10/11 09:15:54;;;;;;;11.90;4.90;;;;;;;29.74;26.06;98968.38;6938745;28;20275;-86
2023/10/11 09:19:19;;;;;;;8.20;4.30;;;;;;;29.63;25.91;98995.69;6921898;28;20315;-86
2023/10/11 09:22:47;;;;;;;13.93;4.60;;;;;;;28.27;26.94;98980.25;6958893;28;20242;-86
2023/10/11 09:26:09;;;;;;;10.23;4.77;;;;;;;29.01;28.05;98994.13;6936440;28;20232;-87
2023/10/11 09:29:31;;;;;;;11.07;4.20;;;;;;;29.38;26.81;98990.81;6943773;28;20215;-87
2023/10/11 09:32:52;;;;;;;9.93;4.97;;;;;;;29.04;26.47;98921.31;6938124;28;20195;-86
2023/10/11 09:36:16;;;;;;;11.43;4.73;;;;;;;29.35;27.16;98999.81;6935571;28;20273;-86
2023/10/11 09:39:39;;;;;;;9.57;5.27;;;;;;;29.37;29.04;98996.72;6941102;28;20577;-87
2023/10/11 09:43:01;;;;;;;11.30;4.33;;;;;;;30.62;26.12;99007.50;6941348;28;20232;-87
2023/10/11 09:46:30;;;;;;;14.30;8.53;;;;;;;29.71;27.58;99005.19;6942911;28;20332;-88
2023/10/11 09:49:53;;;;;;;11.33;5.00;;;;;;;30.17;27.66;99013.72;6944792;28;20258;-85
2023/10/11 09:53:17;;;;;;;11.73;5.67;;;;;;;30.30;27.46;98999.66;6939674;28;20206;-88
2023/10/11 09:56:48;;;;;;;9.13;4.67;;;;;;;30.22;27.05;99002.44;6941597;28;20228;-88
2023/10/11 10:00:16;;;;;;;11.70;4.70;;;;;;;30.52;26.62;99005.03;6944596;28;20289;-85
2023/10/11 10:03:38;;;;;;;15.30;5.40;;;;;;;30.22;26.47;99003.28;6935506;28;20217;-86
2023/10/11 10:07:21;;;;;;;8.20;4.03;;;;;;;30.57;26.88;99012.38;6932691;28;20368;-85
2023/10/11 10:10:53;;;;;;;10.13;4.63;;;;;;;31.11;24.90;98992.94;6929955;28;20204;-86
2023/10/11 10:14:25;;;;;;;11.17;4.20;;;;;;;31.34;25.05;98991.56;6944513;28;20206;-86
2023/10/11 10:18:19;;;;;;;8.43;3.90;;;;;;;30.80;25.19;98983.22;6942776;28;20280;-84
2023/10/11 10:22:11;;;;;;;10.70;4.53;;;;;;;31.16;25.48;98991.94;6931570;28;20590;-88
2023/10/11 10:25:32;;;;;;;11.07;4.50;;;;;;;31.45;25.05;98991.97;6929019;28;20278;-86
2023/10/11 10:28:57;;;;;;;13.67;4.87;;;;;;;31.29;25.10;98990.91;6940103;28;20349;-85
2023/10/11 10:32:20;;;;;;;13.27;4.50;;;;;;;30.85;26.16;98991.41;6943204;28;20240;-85
2023/10/11 10:35:42;;;;;;;12.00;4.87;;;;;;;30.06;27.18;98999.31;6941739;28;20257;-84
2023/10/11 10:43:14;;;;;;;13.30;4.33;;;;;;;30.79;26.74;98921.13;6943214;28;20222;-88
2023/10/11 10:46:36;;;;;;;10.03;4.83;;;;;;;30.88;25.95;98974.00;6955250;28;20233;-86
2023/10/11 10:50:09;;;;;;;13.30;4.20;;;;;;;30.36;26.06;98861.19;6935611;28;20405;-86
2023/10/11 10:53:37;;;;;;;10.77;4.60;;;;;;;31.67;25.83;98975.75;6939945;28;20210;-87
2023/10/11 10:57:03;;;;;;;10.63;4.13;;;;;;;32.23;25.09;98971.56;6939100;28;20223;-87
2023/10/11 11:00:25;;;;;;;13.93;4.50;;;;;;;32.44;24.25;98962.03;6936651;28;20255;-86
2023/10/11 11:03:47;;;;;;;13.00;4.57;;;;;;;31.89;24.73;98933.63;6937394;28;20634;-87
2023/10/11 11:07:22;;;;;;;9.80;4.43;;;;;;;31.92;24.86;98876.34;6939517;28;20232;-86
2023/10/11 11:10:54;;;;;;;10.43;4.53;;;;;;;32.30;24.04;98885.34;6936667;28;20197;-87
2023/10/11 11:14:19;;;;;;;11.40;4.67;;;;;;;33.12;23.59;98927.72;6939770;28;20202;-89
2023/10/11 11:17:46;;;;;;;9.30;4.53;;;;;;;33.09;23.29;98934.03;6948328;28;20250;-87
2023/10/11 11:21:19;;;;;;;12.27;4.10;;;;;;;33.56;23.20;98923.19;6942070;28;20337;-85
2023/10/11 11:24:44;;;;;;;10.10;4.37;;;;;;;32.79;23.78;98932.59;6923625;28;20314;-86
2023/10/11 11:28:14;;;;;;;8.17;4.20;;;;;;;32.89;24.45;98925.75;6938100;28;20204;-85
2023/10/11 11:31:51;;;;;;;7.87;4.17;;;;;;;32.96;24.37;98924.00;6950155;28;20193;-86
2023/10/11 11:35:28;;;;;;;13.53;4.67;;;;;;;32.40;24.96;98896.06;6941077;28;20635;-87
2023/10/11 11:38:49;;;;;;;11.67;5.13;;;;;;;32.92;24.79;98911.06;6937419;28;20197;-87
2023/10/11 11:42:19;;;;;;;11.97;4.40;;;;;;;33.37;24.18;98911.81;6938107;28;20319;-86
2023/10/11 11:45:40;;;;;;;10.37;4.33;;;;;;;33.19;23.52;98862.88;6941635;28;20960;-85
2023/10/11 11:49:09;;;;;;;7.53;4.10;;;;;;;32.65;24.64;98900.53;6939182;28;20342;-84
2023/10/11 11:52:30;;;;;;;9.73;4.00;;;;;;;32.79;23.85;98867.53;6937312;28;20253;-84
2023/10/11 11:55:52;;;;;;;12.03;4.10;;;;;;;31.74;25.02;98898.00;6939194;28;20228;-85
2023/10/11 11:59:18;;;;;;;9.63;4.57;;;;;;;32.28;25.15;98879.28;6940799;28;20260;-86
2023/10/11 12:02:40;;;;;;;9.77;4.23;;;;;;;32.78;23.75;98880.69;6936273;28;20782;-85
2023/10/11 12:06:11;;;;;;;12.10;4.60;;;;;;;32.29;24.66;98864.16;6941374;28;20335;-86
2023/10/11 12:09:34;;;;;;;8.77;4.30;;;;;;;33.00;23.71;98871.03;6938230;28;20258;-85
2023/10/11 12:13:05;;;;;;;10.20;4.50;;;;;;;32.93;24.37;98860.44;6945221;28;20254;-86
2023/10/11 12:16:29;;;;;;;12.77;4.30;;;;;;;31.86;nan;98775.34;6937500;28;20362;-85
2023/10/11 12:19:53;;;;;;;9.70;4.60;;;;;;;32.07;24.35;98809.56;6938615;28;20580;-85
2023/10/11 12:23:15;;;;;;;11.07;4.30;;;;;;;31.96;24.17;98802.78;6942775;28;20224;-85
2023/10/11 12:26:40;;;;;;;13.13;4.37;;;;;;;31.00;26.16;98843.22;6935481;28;20220;-84
2023/10/11 12:30:02;;;;;;;13.00;5.10;;;;;;;32.25;24.81;98847.28;6945001;28;20209;-85
2023/10/11 12:33:30;;;;;;;12.03;4.40;;;;;;;31.80;24.15;98821.34;6933117;28;20303;-84
2023/10/11 12:36:53;;;;;;;6.77;4.23;;;;;;;32.51;24.25;98867.38;6949974;28;20256;-86
2023/10/11 12:40:22;;;;;;;10.90;4.90;;;;;;;32.70;24.01;98844.44;6942518;28;20671;-86
2023/10/11 12:43:45;;;;;;;11.53;4.53;;;;;;;32.05;24.08;98805.47;6942024;28;20228;-84
2023/10/11 12:47:10;;;;;;;10.37;4.67;;;;;;;32.63;23.78;98844.22;6952742;28;20233;-85
2023/10/11 12:50:36;;;;;;;8.87;4.37;;;;;;;31.92;24.36;98784.28;6946601;28;20260;-86
2023/10/11 12:53:58;;;;;;;13.03;4.33;;;;;;;32.73;24.24;98844.56;6940216;28;20201;-84
2023/10/11 12:57:19;;;;;;;8.17;4.17;;;;;;;32.20;24.37;98847.47;6947405;28;20649;-85
2023/10/11 13:00:49;;;;;;;10.77;5.07;;;;;;;32.23;25.28;98840.41;6931768;28;20678;-86
2023/10/11 13:04:17;;;;;;;14.03;4.27;;;;;;;32.65;24.79;98831.53;6947437;28;20211;-86
2023/10/11 13:07:40;;;;;;;9.63;4.60;;;;;;;32.87;24.59;98817.16;6928388;28;20188;-86
2023/10/11 13:11:01;;;;;;;6.77;4.50;;;;;;;32.73;24.19;98807.47;6934366;28;20663;-90
2023/10/11 13:14:24;;;;;;;14.73;4.93;;;;;;;32.92;24.21;98830.06;6953546;28;20813;-85
2023/10/11 13:17:46;;;;;;;12.13;4.77;;;;;;;32.96;24.15;98831.00;6949735;28;20213;-83
2023/10/11 13:21:10;;;;;;;10.33;4.20;;;;;;;32.22;24.94;98824.81;6959452;28;20199;-85
2023/10/11 13:24:34;;;;;;;10.00;4.90;;;;;;;31.38;25.66;98816.09;6960040;28;20237;-85
2023/10/11 13:27:56;;;;;;;11.43;4.40;;;;;;;32.65;24.28;98820.38;6944793;28;20326;-85
2023/10/11 13:31:18;;;;;;;11.87;4.20;;;;;;;32.97;24.18;98813.84;6950982;28;20219;-85
2023/10/11 13:34:42;;;;;;;10.07;4.57;;;;;;;33.45;23.54;98813.00;6948220;28;20272;-86
2023/10/11 13:38:11;;;;;;;10.90;4.37;;;;;;;33.08;24.29;98803.84;6953058;28;20221;-86
2023/10/11 13:41:34;;;;;;;10.10;4.63;;;;;;;33.09;24.30;98804.66;6954690;28;20197;-85
2023/10/11 13:44:56;;;;;;;21.83;4.83;;;;;;;33.09;24.12;98757.97;6948776;28;20225;-85
2023/10/11 13:48:18;;;;;;;8.97;4.63;;;;;;;33.01;24.39;98806.41;6948495;28;20251;-86
2023/10/11 13:51:39;;;;;;;8.57;4.07;;;;;;;32.22;24.61;98693.66;6954328;28;20752;-84
2023/10/11 13:55:03;;;;;;;9.70;4.40;;;;;;;32.94;23.93;98789.44;6949525;28;20601;-84
2023/10/11 13:58:26;;;;;;;9.23;4.30;;;;;;;32.77;23.90;98805.63;6941850;28;20221;-85
2023/10/11 14:01:59;;;;;;;7.90;4.63;;;;;;;33.05;23.70;98759.84;6947856;28;20215;-84
2023/10/11 14:05:24;;;;;;;12.37;3.97;;;;;;;32.48;23.74;98778.72;6955622;28;20244;-86
2023/10/11 14:08:48;;;;;;;12.43;5.43;;;;;;;32.55;24.53;98776.16;6947529;28;20209;-83
2023/10/11 14:12:15;;;;;;;12.40;9.23;;;;;;;32.56;24.52;98774.19;6950251;28;20208;-82
2023/10/11 14:15:38;;;;;;;14.70;6.37;;;;;;;32.75;24.18;98779.97;6951147;28;20288;-84
2023/10/11 14:19:06;;;;;;;11.67;6.40;;;;;;;32.78;23.69;98756.97;6958079;28;20660;-84
2023/10/11 14:22:27;;;;;;;6.80;4.20;;;;;;;32.07;23.45;98691.56;6948036;28;20217;-84
2023/10/11 14:25:53;;;;;;;8.17;4.23;;;;;;;32.61;23.04;98746.03;6947516;28;20310;-85
2023/10/11 14:29:15;;;;;;;8.67;4.93;;;;;;;32.59;23.47;98763.13;6954172;28;20639;-85
2023/10/11 14:32:38;;;;;;;9.63;4.17;;;;;;;31.82;23.28;98687.94;6955547;28;20205;-84
2023/10/11 14:36:00;;;;;;;9.30;4.83;;;;;;;32.53;22.97;98755.31;6948442;28;20235;-84
2023/10/11 14:39:22;;;;;;;12.60;5.13;;;;;;;32.16;23.19;98692.25;6953704;28;20212;-84
2023/10/11 14:42:44;;;;;;;9.63;4.60;;;;;;;32.63;22.97;98755.69;6955866;28;20227;-83
2023/10/11 14:46:07;;;;;;;9.13;3.90;;;;;;;32.59;23.00;98745.53;6958305;28;20220;-83
2023/10/11 14:49:30;;;;;;;9.23;4.27;;;;;;;32.63;23.24;98750.09;6947798;28;20207;-83
2023/10/11 14:52:52;;;;;;;10.27;4.33;;;;;;;32.36;23.12;98703.34;6953084;28;20208;-84
2023/10/11 14:56:14;;;;;;;9.90;4.10;;;;;;;32.15;23.27;98704.59;6952262;28;20764;-83
2023/10/11 14:59:36;;;;;;;9.20;4.07;;;;;;;31.97;23.45;98678.06;6950131;28;20204;-84
2023/10/11 15:02:57;;;;;;;10.43;4.10;;;;;;;32.04;23.23;98698.66;6945036;28;20250;-83
2023/10/11 15:06:21;;;;;;;7.93;4.13;;;;;;;32.35;23.37;98717.63;6953233;28;20231;-84
2023/10/11 15:09:43;;;;;;;7.67;3.97;;;;;;;32.28;22.69;98723.81;6944428;28;20722;-84
2023/10/11 15:13:05;;;;;;;7.33;4.03;;;;;;;32.08;26.29;98733.06;6947403;28;20275;-83
2023/10/11 15:16:26;;;;;;;8.33;4.27;;;;;;;31.42;24.49;98675.72;6941502;28;20232;-84
2023/10/11 15:19:48;;;;;;;6.60;3.93;;;;;;;31.86;24.96;98721.53;6942871;28;20680;-83
2023/10/11 15:23:11;;;;;;;8.27;4.17;;;;;;;31.47;28.31;98717.31;6962895;28;20227;-84
2023/10/11 15:26:33;;;;;;;8.10;3.87;;;;;;;31.74;25.38;98729.84;6946179;28;20241;-84
2023/10/11 15:29:54;;;;;;;9.00;4.10;;;;;;;31.62;28.13;98724.22;6945347;28;20315;-85
2023/10/11 15:33:17;;;;;;;9.57;3.97;;;;;;;30.92;29.47;98733.53;6937848;28;20217;-83
2023/10/11 15:36:40;;;;;;;5.97;3.80;;;;;;;30.26;30.54;98712.09;6944300;28;20242;-86
2023/10/11 15:40:05;;;;;;;7.93;3.67;;;;;;;29.95;31.24;98719.91;6951135;28;20366;-85
2023/10/11 15:43:27;;;;;;;7.80;3.87;;;;;;;29.44;30.97;98742.28;6941022;28;20242;-84
2023/10/11 15:46:48;;;;;;;28.27;25.37;;;;;;;29.80;30.65;98745.50;6950207;28;20322;-86
2023/10/11 15:50:12;;;;;;;210.23;186.50;;;;;;;29.93;30.32;98710.28;6944005;28;20293;-85
2023/10/11 15:53:34;;;;;;;191.63;169.00;;;;;;;29.82;31.43;98743.19;6943317;28;20205;-84
2023/10/11 15:56:56;;;;;;;8.57;5.97;;;;;;;29.20;32.04;98741.94;6942557;28;20255;-84
2023/10/11 16:00:19;;;;;;;407.47;365.40;;;;;;;28.81;32.75;98738.47;6941368;28;20209;-85
2023/10/11 16:03:44;;;;;;;14.57;11.07;;;;;;;28.93;32.54;98736.69;6944718;28;20243;-85
2023/10/11 16:07:07;;;;;;;8.53;4.67;;;;;;;28.38;34.08;98730.06;6954025;28;20232;-86
2023/10/11 16:10:29;;;;;;;7.47;4.30;;;;;;;28.35;34.44;98743.72;6944077;28;20209;-85
2023/10/11 16:13:52;;;;;;;8.87;4.77;;;;;;;28.27;34.92;98748.13;6935545;28;20231;-85
2023/10/11 16:17:16;;;;;;;7.17;4.43;;;;;;;27.90;34.82;98737.50;6946827;28;20251;-86